Latest Weather Observations for Ngukurr AWS

IDD60801

Issued at 10:35 pm CST Monday 24 November 2014 (issued every 30 minutes, with the page automatically refreshed every 10 minutes)

About weather observations | Map of weather stations | Latest weather observations for NT | Other Formats
Station Details ID: 014299 Name: NGUKURR AIRPORT Lat: -14.72 Lon: 134.75 Height: 14.46 m
Data from the previous 72 hours. | See also: Recent months at Ngukurr AWS
Date/Time
CST
Temp
°C
App
Temp
°C
Dew
Point
Rel
Hum
%
Delta-T
°C
Wind Press
QNH
hPa
Press
MSL
hPa
Rain
since 9 am
mm
Dir
 
Spd
km/h
Gust
km/h
Spd
kts
Gust
kts
24/10:30pm 27.6 33.8 25.2 87 1.7 ENE 2 6 1 3 1009.5 1009.4 1.2
24/10:00pm 27.2 32.2 24.8 87 1.7 SE 7 11 4 6 1009.4 1009.3 1.2
24/09:30pm 28.1 29.3 23.2 74 3.4 SE 22 37 12 20 1009.9 1009.8 0.8
24/09:00pm 31.5 34.0 21.7 56 6.6 E 11 19 6 10 1009.0 1008.9 0.6
24/08:30pm 31.5 35.7 21.7 56 6.6 NNE 2 4 1 2 1008.4 1008.3 0.6
24/08:00pm 31.9 35.3 21.7 54 6.9 NNE 6 9 3 5 1007.9 1007.8 0.6
24/07:30pm 32.1 35.1 21.9 54 6.9 ESE 9 15 5 8 1007.4 1007.3 0.6
24/07:00pm 30.9 35.6 23.3 64 5.2 E 4 11 2 6 1006.8 1006.7 0.6
24/06:30pm 30.6 34.6 22.7 62 5.4 W 6 9 3 5 1006.2 1006.1 0.6
24/06:00pm 31.4 33.9 21.8 56 6.5 SW 11 19 6 10 1005.6 1005.5 0.6
24/05:30pm 30.6 32.4 22.5 62 5.5 SSW 17 28 9 15 1005.5 1005.4 0.6
24/05:10pm 34.8 33.5 20.7 43 9.5 S 28 35 15 19 1004.8 1004.7 0.0
24/05:00pm 39.0 39.9 16.6 27 14.4 SE 7 11 4 6 1004.0 1003.9 0.0
24/04:30pm 39.4 40.4 16.3 25 14.9 ESE 6 11 3 6 1003.8 1003.7 0.0
24/04:00pm 40.1 39.7 16.3 24 15.3 E 13 20 7 11 1003.9 1003.8 0.0
24/03:30pm 39.5 39.9 16.4 25 14.9 N 9 15 5 8 1004.2 1004.1 0.0
24/03:00pm 39.8 40.6 17.3 27 14.7 NE 9 15 5 8 1004.7 1004.6 0.0
24/02:30pm 39.0 39.4 17.2 28 14.2 N 11 17 6 9 1005.2 1005.1 0.0
24/02:00pm 38.4 39.6 18.3 31 13.2 NNE 9 17 5 9 1006.0 1005.9 0.0
24/01:30pm 37.0 35.8 18.5 33 12.2 E 22 32 12 17 1007.1 1007.0 0.0
24/01:00pm 38.7 40.0 17.5 29 13.8 SE 7 17 4 9 1007.7 1007.6 0.0
24/12:30pm 37.7 39.1 17.7 31 13.1 E 7 15 4 8 1008.6 1008.5 0.0
24/12:00pm 37.1 37.7 17.6 31 12.7 N 11 19 6 10 1009.1 1009.0 0.0
24/11:30am 37.4 39.0 17.9 31 12.8 NW 6 13 3 7 1009.5 1009.4 0.0
24/11:00am 37.7 39.7 18.7 33 12.6 N 6 17 3 9 1009.7 1009.6 0.0
24/10:30am 36.7 39.3 20.1 38 11.1 NE 6 20 3 11 1009.8 1009.7 0.0
24/10:00am 35.2 37.0 19.6 40 10.4 NW 9 15 5 8 1010.2 1010.1 0.0
24/09:30am 34.5 36.9 20.8 44 9.2 WNW 9 19 5 10 1010.4 1010.3 0.0
24/09:00am 33.3 35.8 21.8 51 7.8 WNW 11 19 6 10 1010.5 1010.4 0.0
24/08:30am 32.3 34.8 21.8 54 7.1 W 11 17 6 9 1010.5 1010.4 0.0
24/08:00am 32.1 35.2 22.2 56 6.7 NW 9 15 5 8 1010.5 1010.4 0.0
24/07:30am 30.2 33.1 22.4 63 5.3 NNW 11 15 6 8 1010.5 1010.4 0.0
24/07:00am 29.6 32.8 22.3 65 5.0 NNW 9 13 5 7 1010.2 1010.1 0.0
24/06:30am 29.0 32.7 22.5 68 4.4 N 7 11 4 6 1009.9 1009.8 0.0
24/06:00am 27.6 31.0 21.6 70 4.0 WNW 6 11 3 6 1009.4 1009.3 0.0
24/05:30am 26.8 30.7 20.4 68 4.2 CALM 0 0 0 0 1008.8 1008.7 0.0
24/05:00am 26.9 30.9 20.5 68 4.2 CALM 0 0 0 0 1008.4 1008.3 0.0
24/04:30am 27.0 30.9 20.3 66 4.4 CALM 0 0 0 0 1008.3 1008.2 0.0
24/04:00am 27.2 30.8 19.8 64 4.8 CALM 0 0 0 0 1008.3 1008.2 0.0
24/03:30am 27.8 30.6 20.4 64 4.9 E 6 7 3 4 1008.2 1008.1 0.0
24/03:00am 28.1 31.6 19.6 60 5.5 CALM 0 0 0 0 1007.9 1007.8 0.0
24/02:30am 28.5 31.8 20.0 60 5.6 N 2 4 1 2 1007.8 1007.7 0.0
24/02:00am 29.0 31.8 19.6 57 6.1 NE 4 6 2 3 1008.4 1008.3 0.0
24/01:30am 29.1 31.4 18.5 52 6.8 NE 4 6 2 3 1008.6 1008.5 0.0
24/01:00am 29.2 31.0 18.3 51 7.0 NE 6 7 3 4 1008.9 1008.8 0.0
24/12:30am 29.7 31.5 18.2 50 7.4 E 6 7 3 4 1009.4 1009.3 0.0
24/12:00am 30.1 31.7 17.9 48 7.8 NE 6 9 3 5 1009.6 1009.5 0.0
 
Date/Time
CST
Temp
°C
App
Temp
°C
Dew
Point
Rel
Hum
%
Delta-T
°C
Wind Press
QNH
hPa
Press
MSL
hPa
Rain
since 9 am
mm
Dir
 
Spd
km/h
Gust
km/h
Spd
kts
Gust
kts
23/11:30pm 30.5 32.0 17.6 46 8.2 ENE 6 11 3 6 1009.9 1009.8 0.0
23/11:00pm 31.0 32.2 17.3 43 8.7 ENE 7 13 4 7 1009.6 1009.5 0.0
23/10:30pm 31.3 32.1 17.2 42 9.0 NE 9 15 5 8 1009.3 1009.2 0.0
23/10:00pm 31.4 31.4 17.3 43 9.0 ENE 13 17 7 9 1009.2 1009.1 0.0
23/09:30pm 31.6 31.6 17.1 41 9.2 E 13 19 7 10 1008.9 1008.8 0.0
23/09:00pm 32.1 32.7 17.6 42 9.3 E 11 17 6 9 1008.7 1008.6 0.0
23/08:30pm 32.5 33.0 17.5 40 9.6 E 11 17 6 9 1008.3 1008.2 0.0
23/08:00pm 33.2 32.4 17.0 38 10.3 ENE 17 28 9 15 1007.9 1007.8 0.0
23/07:30pm 33.8 33.2 16.6 35 10.9 ENE 15 22 8 12 1007.5 1007.4 0.0
23/07:00pm 34.4 34.8 17.2 36 11.0 E 11 19 6 10 1007.2 1007.1 0.0
23/06:30pm 35.3 33.7 16.6 33 11.9 E 20 32 11 17 1006.6 1006.5 0.0
23/06:00pm 37.2 35.1 15.1 27 13.9 E 20 32 11 17 1006.2 1006.1 0.0
23/05:30pm 38.9 34.8 12.6 21 16.1 E 26 33 14 18 1006.0 1005.9 0.0
23/05:00pm 39.9 38.1 13.4 21 16.4 E 15 30 8 16 1005.6 1005.5 0.0
23/04:30pm 40.5 38.1 8.8 15 18.5 E 11 19 6 10 1005.6 1005.5 0.0
23/04:00pm 41.1 39.8 9.3 15 18.7 NNE 6 11 3 6 1005.8 1005.7 0.0
23/03:30pm 40.5 38.1 8.8 15 18.5 E 11 20 6 11 1006.4 1006.3 0.0
23/03:00pm 40.2 38.4 9.6 16 18.0 N 9 15 5 8 1006.7 1006.6 0.0
23/02:30pm 41.3 40.6 11.3 17 18.2 N 6 13 3 7 1007.2 1007.1 0.0
23/02:00pm 40.2 38.4 12.1 19 17.1 N 13 20 7 11 1007.7 1007.6 0.0
23/01:30pm 40.2 40.2 13.7 21 16.5 S 6 11 3 6 1008.2 1008.1 0.0
23/01:00pm 39.3 38.2 14.3 22 15.6 NE 13 26 7 14 1009.1 1009.0 0.0
23/12:30pm 38.4 38.9 15.5 26 14.5 NNE 7 13 4 7 1009.4 1009.3 0.0
23/12:00pm 38.1 38.2 16.4 27 13.9 N 11 20 6 11 1010.1 1010.0 0.0
23/11:30am 37.3 37.9 16.8 29 13.2 NNE 9 19 5 10 1010.5 1010.4 0.0
23/11:00am 36.7 37.9 17.3 31 12.5 N 7 17 4 9 1010.9 1010.8 0.0
23/10:30am 35.6 37.2 19.1 38 10.9 W 9 15 5 8 1011.3 1011.2 0.0
23/10:00am 34.5 36.9 20.8 44 9.2 N 9 17 5 9 1011.7 1011.6 0.0
23/09:30am 33.7 36.1 21.5 49 8.3 NW 11 20 6 11 1012.1 1012.0 0.0
23/09:00am 33.2 35.7 21.7 51 7.8 NNW 11 15 6 8 1012.3 1012.2 0.0
23/08:30am 31.8 34.2 21.6 54 6.9 N 11 20 6 11 1012.3 1012.2 0.0
23/08:00am 31.4 33.6 21.8 56 6.5 N 13 20 7 11 1012.1 1012.0 0.0
23/07:30am 30.4 32.9 21.8 60 5.8 NNW 11 19 6 10 1012.0 1011.9 0.0
23/07:00am 28.9 32.6 21.4 64 5.0 N 4 7 2 4 1011.8 1011.7 0.0
23/06:30am 27.1 31.2 20.7 68 4.2 CALM 0 0 0 0 1011.3 1011.2 0.0
23/06:00am 26.6 30.8 20.9 71 3.8 CALM 0 0 0 0 1010.6 1010.5 0.0
23/05:30am 26.4 30.4 20.5 70 3.9 CALM 0 0 0 0 1010.2 1010.1 0.0
23/05:00am 26.6 30.4 20.2 68 4.2 CALM 0 0 0 0 1010.1 1010.0 0.0
23/04:30am 26.8 30.6 20.2 67 4.3 CALM 0 4 0 2 1009.8 1009.7 0.0
23/04:00am 27.5 30.6 20.3 65 4.7 N 4 6 2 3 1009.3 1009.2 0.0
23/03:30am 28.0 30.6 20.0 61 5.2 N 6 9 3 5 1009.2 1009.1 0.0
23/03:00am 28.2 31.2 20.0 61 5.4 NE 4 6 2 3 1009.5 1009.4 0.0
23/02:30am 28.5 31.3 19.7 59 5.7 NNE 4 7 2 4 1009.5 1009.4 0.0
23/02:00am 28.6 30.7 19.0 56 6.2 NE 6 7 3 4 1009.7 1009.6 0.0
23/01:30am 29.0 30.8 18.4 52 6.8 NNE 6 7 3 4 1009.7 1009.6 0.0
23/01:00am 29.4 31.2 18.2 51 7.2 NNE 6 9 3 5 1010.1 1010.0 0.0
23/12:30am 29.7 31.6 18.5 51 7.2 NNE 6 7 3 4 1010.5 1010.4 0.0
23/12:00am 29.8 31.4 19.2 53 6.9 ENE 9 13 5 7 1010.8 1010.7 0.0
 
Date/Time
CST
Temp
°C
App
Temp
°C
Dew
Point
Rel
Hum
%
Delta-T
°C
Wind Press
QNH
hPa
Press
MSL
hPa
Rain
since 9 am
mm
Dir
 
Spd
km/h
Gust
km/h
Spd
kts
Gust
kts
22/11:30pm 30.0 31.9 19.7 54 6.8 NE 9 13 5 7 1010.7 1010.6 0.0
22/11:00pm 30.2 32.4 19.6 53 6.9 NE 7 11 4 6 1010.8 1010.7 0.0
22/10:30pm 30.5 32.0 19.8 52 7.0 ENE 11 19 6 10 1010.6 1010.5 0.0
22/10:00pm 30.8 31.7 20.1 53 7.1 ENE 15 22 8 12 1010.5 1010.4 0.0
22/09:30pm 31.2 31.8 20.2 52 7.3 ENE 17 24 9 13 1010.2 1010.1 0.0
22/09:00pm 31.8 32.6 19.8 49 7.9 ENE 15 26 8 14 1009.8 1009.7 0.0
22/08:30pm 32.3 33.1 19.9 48 8.2 E 15 20 8 11 1009.4 1009.3 0.0
22/08:00pm 32.7 33.9 20.6 49 8.1 E 15 22 8 12 1009.0 1008.9 0.0
22/07:30pm 33.4 33.4 19.8 44 9.0 E 19 28 10 15 1008.4 1008.3 0.0
22/07:00pm 34.5 33.6 18.1 37 10.6 E 20 28 11 15 1008.0 1007.9 0.0
22/06:30pm 35.5 34.7 18.1 35 11.4 E 19 28 10 15 1007.3 1007.2 0.0
22/06:00pm 36.9 36.3 18.4 33 12.2 E 19 28 10 15 1006.8 1006.7 0.0
22/05:30pm 37.6 36.5 18.6 33 12.6 E 22 30 12 16 1006.5 1006.4 0.0
22/05:00pm 39.4 37.4 17.5 27 14.3 ENE 24 28 13 15 1006.3 1006.2 0.0
22/04:30pm 40.0 37.2 11.2 18 17.3 NE 17 24 9 13 1006.2 1006.1 0.0
22/04:00pm 39.7 38.5 11.7 19 16.9 ESE 9 17 5 9 1006.5 1006.4 0.0
22/03:30pm 40.4 37.9 12.3 19 17.2 N 17 24 9 13 1006.9 1006.8 0.0
22/03:00pm 40.3 38.4 13.0 20 16.9 ENE 15 28 8 15 1007.5 1007.4 0.0
22/02:30pm 39.7 39.0 13.3 21 16.3 NE 9 20 5 11 1007.8 1007.7 0.0
22/02:00pm 40.0 38.5 12.0 19 17.0 N 11 20 6 11 1008.1 1008.0 0.0
22/01:30pm 39.7 38.5 14.0 22 16.1 NNE 13 22 7 12 1008.7 1008.6 0.0
22/01:00pm 38.3 38.5 14.8 25 14.8 ENE 7 13 4 7 1009.4 1009.3 0.0
22/12:30pm 38.9 38.4 15.9 25 14.7 NE 13 24 7 13 1010.0 1009.9 0.0
22/12:00pm 38.1 39.5 16.4 27 13.9 ENE 4 13 2 7 1010.3 1010.2 0.0
22/11:30am 37.8 38.6 17.2 29 13.4 ENE 9 20 5 11 1011.0 1010.9 0.0
22/11:00am 35.9 38.2 18.5 36 11.4 N 4 9 2 5 1011.4 1011.3 0.0
22/10:30am 35.7 38.3 19.2 38 10.9 NNE 4 13 2 7 1011.9 1011.8 0.0
22/10:00am 34.5 36.6 20.1 43 9.6 NNE 9 19 5 10 1012.4 1012.3 0.0
22/09:30am 34.6 38.4 21.6 46 8.8 NNE 4 6 2 3 1012.2 1012.1 0.0
22/09:00am 32.7 36.0 21.9 53 7.3 N 7 15 4 8 1012.3 1012.2 0.0
22/08:30am 31.9 35.5 22.3 56 6.5 N 7 13 4 7 1012.1 1012.0 0.0
22/08:00am 31.8 35.6 22.8 59 6.2 NNW 7 13 4 7 1012.0 1011.9 0.0
22/07:30am 30.3 32.9 22.7 64 5.2 N 13 19 7 10 1011.6 1011.5 0.0
22/07:00am 29.1 33.9 22.1 66 4.7 CALM 0 2 0 1 1011.3 1011.2 0.0
22/06:30am 28.1 32.8 21.9 69 4.2 CALM 0 0 0 0 1010.9 1010.8 0.0
22/06:00am 27.1 31.4 21.2 70 3.9 CALM 0 0 0 0 1010.7 1010.6 0.0
22/05:30am 27.1 31.0 21.2 70 3.9 WNW 2 4 1 2 1010.4 1010.3 0.0
22/05:00am 27.5 31.9 21.3 69 4.1 CALM 0 2 0 1 1010.3 1010.2 0.0
22/04:30am 27.9 31.6 21.4 67 4.3 N 4 6 2 3 1010.2 1010.1 0.0
22/04:00am 28.1 31.4 21.4 67 4.5 NNE 6 11 3 6 1009.9 1009.8 0.0
22/03:30am 28.2 31.1 21.0 65 4.8 NE 7 9 4 5 1009.4 1009.3 0.0
22/03:00am 28.6 31.6 20.9 63 5.1 NE 6 9 3 5 1009.3 1009.2 0.0
22/02:30am 28.9 31.7 20.9 62 5.3 N 7 11 4 6 1009.1 1009.0 0.0
22/02:00am 29.1 31.9 20.5 59 5.7 NNE 6 11 3 6 1009.2 1009.1 0.0
22/01:30am 29.1 31.8 20.3 59 5.8 NE 6 7 3 4 1009.2 1009.1 0.0
22/01:00am 29.6 32.3 20.2 57 6.2 NE 6 9 3 5 1009.6 1009.5 0.0
22/12:30am 29.9 32.2 19.9 55 6.6 NE 7 13 4 7 1009.5 1009.4 0.0
22/12:00am 30.3 32.1 19.6 52 7.0 NNE 9 15 5 8 1009.6 1009.5 0.0
 
Date/Time
CST
Temp
°C
App
Temp
°C
Dew
Point
Rel
Hum
%
Delta-T
°C
Wind Press
QNH
hPa
Press
MSL
hPa
Rain
since 9 am
mm
Dir
 
Spd
km/h
Gust
km/h
Spd
kts
Gust
kts
21/11:30pm 30.8 32.9 20.1 53 7.1 NNE 9 19 5 10 1009.8 1009.7 0.0
21/11:00pm 30.9 33.1 21.1 56 6.6 NE 11 17 6 9 1009.7 1009.6 0.0

Other Formats:

Comma delimited format used in spreadsheet applications
http://www.bom.gov.au/fwo/IDD60801/IDD60801.94106.axf

JavaScript Object Notation format (JSON) in row-major order
http://www.bom.gov.au/fwo/IDD60801/IDD60801.94106.json